• Join FlightAware (Why Join?)
  • Login
  • US Flag 
09:28AM EDT


 

Airport Tracker/Info


-or-


 

Live Flight TrackerFlight Track Log ✈ ASQ4179 ✈ 23-Jun-2013 ✈ KIAH - KIND

Flight Track Log - Related Links

Times and Time Zones

All times are in EDT time to prevent confusion due to time zone crossing. See the ASQ4179 flight status page for this flight to view local times or setup timezone preferences in your user account.

Time Position Orientation Groundspeed Altitude Reporting Facility
EDT Latitude Longitude Course Direction KTS MPH feet Rate Location/Type
10:25PM 29.9931 -95.3664 41° Northeast 179 206 600  Level Houston Center
10:26PM 30.0372 -95.3875 338° Northwest 216 249 2,500 1,560 Climbing Houston Center
10:27PM 30.0922 -95.3653 19° North 237 273 3,600 1,680 Climbing Houston Center
10:28PM 30.1575 -95.3272 27° Northeast 272 313 5,600 2,040 Climbing Houston Center
10:29PM 30.2289 -95.2869 26° Northeast 273 314 7,800 1,860 Climbing Houston Center
10:30PM 30.5970 -95.0529 41° Northeast  Level FlightAware Approximate
10:30PM 30.2989 -95.2464 27° Northeast 279 321 9,600  Level Houston Center
10:31PM 30.3756 -95.2036 26° Northeast 298 343 10,300 780 Climbing Houston Center
10:32PM 30.4717 -95.1461 27° Northeast 340 391 11,200 1,080 Climbing Houston Center
10:33PM 30.5600 -95.0942 27° Northeast 353 406 12,600 1,140 Climbing Houston Center
10:34PM 30.6475 -95.0411 28° Northeast 354 407 13,600 960 Climbing Houston Center
10:35PM 30.7358 -94.9847 29° Northeast 360 414 14,600 900 Climbing Houston Center
10:36PM 30.8272 -94.9281 28° Northeast 368 423 15,500 780 Climbing Houston Center
10:37PM 30.9189 -94.8706 28° Northeast 373 429 16,200 720 Climbing Houston Center
10:38PM 31.0106 -94.8122 29° Northeast 375 432 17,000 720 Climbing Houston Center
10:39PM 31.1025 -94.7550 28° Northeast 376 433 17,700 780 Climbing Houston Center
10:40PM 31.2094 -94.6833 30° Northeast 382 440 18,600 780 Climbing Houston Center
10:41PM 31.2994 -94.6231 30° Northeast 384 442 19,400 660 Climbing Houston Center
10:42PM 31.3917 -94.5597 30° Northeast 385 443 20,000 600 Climbing Houston Center
10:43PM 31.4856 -94.4939 31° Northeast 392 451 20,700 660 Climbing Houston Center
10:44PM 31.5811 -94.4286 30° Northeast 397 457 21,400 660 Climbing Houston Center
10:45PM 31.6761 -94.3614 31° Northeast 398 458 22,100 660 Climbing Houston Center
10:46PM 31.7719 -94.2950 30° Northeast 400 460 22,800 840 Climbing Houston Center
10:47PM 31.8808 -94.2183 31° Northeast 401 461 23,800 960 Climbing Houston Center
10:48PM 31.9761 -94.1517 31° Northeast 397 457 24,800 780 Climbing Houston Center
10:49PM 32.0569 -94.0956 30° Northeast 395 455 25,500 720 Climbing Houston Center
10:50PM 32.1531 -94.0281 31° Northeast 400 460 26,300 900 Climbing Houston Center
10:51PM 32.2803 -93.9339 32° Northeast 398 458 27,700 1,020 Climbing Fort Worth Center
10:52PM 32.3764 -93.8639 32° Northeast 398 458 28,800 1,020 Climbing Fort Worth Center
10:53PM 32.4664 -93.7989 31° Northeast 393 452 29,800 1,020 Climbing Fort Worth Center
10:54PM 32.5606 -93.7333 30° Northeast 393 452 30,900 1,080 Climbing Fort Worth Center
10:55PM 32.6525 -93.6681 31° Northeast 393 452 32,000 1,140 Climbing Fort Worth Center
10:56PM 32.7444 -93.6050 30° Northeast 388 447 33,200 1,020 Climbing Fort Worth Center
10:57PM 32.8342 -93.5369 33° Northeast 383 441 34,100 840 Climbing Fort Worth Center
10:58PM 32.9261 -93.4711 31° Northeast 383 441 34,900 420 Climbing Fort Worth Center
10:59PM 33.0219 -93.4022 31° Northeast 383 441 35,000  Climbing Fort Worth Center
11:00PM 33.1219 -93.3308 31° Northeast 398 458 35,000  Level Fort Worth Center
11:01PM 33.2281 -93.2539 31° Northeast 417 480 35,000  Level Fort Worth Center
11:04PM 33.4775 -93.0744 31° Northeast 457 526 35,000  Level Memphis Center
11:05PM 33.5856 -92.9956 31° Northeast 452 520 35,000  Level Memphis Center
11:06PM 33.6936 -92.9189 31° Northeast 452 520 35,000  Level Memphis Center
11:07PM 33.7933 -92.8342 35° Northeast 447 514 35,000  Level Memphis Center
11:08PM 33.8914 -92.7394 39° Northeast 447 514 35,000  Level Memphis Center
11:09PM 33.9933 -92.6419 38° Northeast 447 514 35,000  Level Memphis Center
11:10PM 34.0892 -92.5392 42° Northeast 452 520 35,000  Level Memphis Center
11:11PM 34.1867 -92.4464 38° Northeast 452 520 35,000  Level Memphis Center
11:12PM 34.2864 -92.3481 39° Northeast 452 520 35,000  Level Memphis Center
11:13PM 34.3839 -92.2522 39° Northeast 452 520 35,000  Level Memphis Center
11:14PM 34.4811 -92.1586 38° Northeast 452 520 35,000  Level Memphis Center
11:15PM 34.5828 -92.0572 39° Northeast 452 520 35,000  Level Memphis Center
11:16PM 34.6778 -91.9633 39° Northeast 452 520 35,000  Level Memphis Center
11:17PM 34.7731 -91.8664 40° Northeast 452 520 35,000  Level Memphis Center
11:18PM 34.8722 -91.7719 38° Northeast 452 520 35,000  Level Memphis Center
11:19PM 34.9669 -91.6747 40° Northeast 452 520 35,000  Level Memphis Center
11:20PM 35.0536 -91.5847 40° Northeast 452 520 35,000  Level Memphis Center
11:21PM 35.1525 -91.4872 39° Northeast 452 520 35,000  Level Memphis Center
11:22PM 35.2492 -91.3894 40° Northeast 452 520 35,000  Level Memphis Center
11:23PM 35.3481 -91.2914 39° Northeast 452 520 35,000  Level Memphis Center
11:24PM 35.4572 -91.1831 39° Northeast 452 520 35,000  Level Memphis Center
11:25PM 35.5558 -91.0844 39° Northeast 452 520 35,000  Level Memphis Center
11:26PM 35.6647 -91.0086 29° Northeast 452 520 35,000  Level Memphis Center
11:27PM 35.7778 -90.9583 20° North 425 489 35,000  Level Memphis Center
11:28PM 35.9008 -90.9156 16° North 436 502 35,000  Level Memphis Center
11:29PM 36.0178 -90.8703 17° North 443 510 35,000  Level Memphis Center
11:30PM 36.1389 -90.8272 16° North 443 510 35,000  Level Memphis Center
11:31PM 36.2622 -90.7817 17° North 443 510 35,000  Level Memphis Center
11:32PM 36.3811 -90.7383 16° North 443 510 35,000  Level Memphis Center
11:33PM 36.5000 -90.6900 18° North 443 510 35,000  Level Memphis Center
11:34PM 36.6189 -90.6464 16° North 435 501 35,000  Level Memphis Center
11:36PM 36.8875 -90.5394 18° North 451 519 35,000  Level Kansas City Center
11:37PM 37.0072 -90.4939 17° North 450 518 35,000  Level Kansas City Center
11:38PM 37.1244 -90.4475 18° North 445 512 35,000  Level Kansas City Center
11:39PM 37.2389 -90.4019 18° North 435 501 35,000  Level Kansas City Center
11:40PM 37.3431 -90.3069 36° Northeast 434 499 35,000  Level Kansas City Center
11:41PM 37.4219 -90.1911 49° Northeast 435 501 35,000  Level Kansas City Center
11:42PM 37.5078 -90.0619 50° Northeast 435 501 35,000  Level Kansas City Center
11:43PM 37.5869 -89.9419 50° Northeast 440 506 35,000  Level Kansas City Center
11:44PM 37.6567 -89.8356 50° Northeast 444 511 35,000  Level Kansas City Center
11:45PM 37.7356 -89.7147 50° Northeast 446 513 35,000  Level Kansas City Center
11:46PM 37.8158 -89.5919 50° Northeast 451 519 35,000  Level Kansas City Center
11:47PM 37.9122 -89.4436 50° Northeast 452 520 35,000  Level Kansas City Center
11:48PM 37.9900 -89.3231 51° Northeast 446 513 35,000  Level Kansas City Center
11:49PM 38.0675 -89.2025 51° Northeast 443 510 35,000  Level Kansas City Center
11:50PM 38.1439 -89.0831 51° Northeast 440 506 35,000  Level Kansas City Center
11:51PM 38.2192 -88.9642 51° Northeast 441 507 35,000  Level Kansas City Center
11:52PM 38.2969 -88.8425 51° Northeast 444 511 35,000  Level Kansas City Center
11:53PM 38.3839 -88.7039 51° Northeast 453 521 35,000 -120 Level Kansas City Center
11:54PM 38.4517 -88.6006 50° Northeast 451 519 34,800 -900 Descending Kansas City Center
11:55PM 38.5469 -88.4514 51° Northeast 449 517 33,200 -1,560 Descending Kansas City Center
11:56PM 38.6247 -88.3275 51° Northeast 447 514 31,700 -1,440 Descending Kansas City Center
11:57PM 38.6997 -88.2083 51° Northeast 434 499 30,300 -1,380 Descending Kansas City Center
11:58PM 38.7733 -88.0892 52° Northeast 427 491 28,900 -1,380 Descending Kansas City Center
11:59PM 38.8478 -87.9678 52° Northeast 425 489 27,500 -1,440 Descending Kansas City Center
12:00AM 38.9281 -87.8394 51° Northeast 436 502 26,000 -1,980 Descending Kansas City Center
12:01AM 39.0122 -87.7033 51° Northeast 457 526 23,500 -2,580 Descending Kansas City Center
12:02AM 39.0869 -87.5797 52° Northeast 443 510 20,800 -2,400 Descending Kansas City Center
12:04AM 39.1642 -87.4525 52° Northeast 428 493 18,300 -2,220 Descending Indianapolis Center
12:05AM 39.2353 -87.3347 52° Northeast 422 486 16,000 -2,460 Descending Indianapolis Center
12:06AM 39.3022 -87.2256 52° Northeast 396 456 13,400 -2,280 Descending Indianapolis Center
12:07AM 39.3689 -87.1142 52° Northeast 393 452 11,500 -1,260 Descending Indianapolis Center
12:08AM 39.4344 -87.0058 52° Northeast 387 445 10,900 -300 Descending Indianapolis Center
12:09AM 39.4908 -86.9128 52° Northeast 339 390 11,000  Climbing Indianapolis Center
12:10AM 39.5275 -86.8103 65° Northeast 326 375 11,000 -240 Level Indianapolis Center
12:11AM 39.5556 -86.7031 71° East 319 367 10,600 -780 Descending Indianapolis Center
12:12AM 39.5856 -86.5875 71° East 296 341 9,500 -1,080 Descending Indianapolis Center
12:13AM 39.6103 -86.4878 72° East 291 335 8,500 -960 Descending Indianapolis Center
12:14AM 39.6353 -86.3892 72° East 291 335 7,600 -780 Descending Indianapolis Center
12:15AM 39.6581 -86.2944 73° East 284 327 7,000 -600 Descending Indianapolis Center
12:16AM 39.6825 -86.1994 71° East 285 328 6,500 -720 Descending Indianapolis Center
12:17AM 39.7278 -86.1211 53° Northeast 282 325 5,600 -840 Descending Indianapolis Center
12:18AM 39.7772 -86.0544 46° Northeast 266 306 4,900 -840 Descending Indianapolis Center
12:19AM 39.8286 -86.0892 333° Northwest 232 267 4,000 -960 Descending Indianapolis Center
12:20AM 39.8106 -86.1606 252° West 210 242 3,000 -900 Descending Indianapolis Center
12:21AM 39.7747 -86.2092 226° Southwest 195 224 2,300 -780 Descending Indianapolis Center
12:22AM 39.7475 -86.2450 225° Southwest 164 189 1,500 -780 Descending Indianapolis Center
12:23AM 39.7225 -86.2769 225° Southwest 139 160 800 -720 Descending Indianapolis Center